createdAt,value
2023-01-19T00:00:53.198Z,37.28
2023-01-19T00:03:20.150Z,37.63
2023-01-19T00:05:47.046Z,36.33
2023-01-19T00:08:17.550Z,38.83
2023-01-19T00:10:51.070Z,39.80
2023-01-19T00:13:18.073Z,36.88
2023-01-19T00:15:45.721Z,39.47
2023-01-19T00:18:12.573Z,33.60
2023-01-19T00:20:40.396Z,37.20
2023-01-19T00:23:08.323Z,40.35
2023-01-19T00:25:35.815Z,42.35
2023-01-19T00:28:02.932Z,39.92
2023-01-19T00:30:30.025Z,37.67
2023-01-19T00:32:56.987Z,36.88
2023-01-19T00:35:23.871Z,32.78
2023-01-19T00:37:50.680Z,36.35
2023-01-19T00:40:17.919Z,31.35
2023-01-19T00:42:44.788Z,35.50
2023-01-19T00:45:14.371Z,36.10
2023-01-19T00:47:41.607Z,34.25
2023-01-19T00:50:13.287Z,43.65
2023-01-19T00:52:41.075Z,42.15
2023-01-19T00:55:09.083Z,35.08
2023-01-19T00:57:36.210Z,36.00
2023-01-19T01:00:06.475Z,37.85
2023-01-19T01:02:34.018Z,41.33
2023-01-19T01:05:02.861Z,34.42
2023-01-19T01:07:30.951Z,40.33
2023-01-19T01:09:57.756Z,36.40
2023-01-19T01:12:24.648Z,38.53
2023-01-19T01:14:51.472Z,37.08
2023-01-19T01:17:24.843Z,39.20
2023-01-19T01:19:52.574Z,38.33
2023-01-19T01:22:19.637Z,43.83
2023-01-19T01:24:46.492Z,41.05
2023-01-19T01:27:13.352Z,40.83
2023-01-19T01:29:41.259Z,41.13
2023-01-19T01:32:08.439Z,40.13
2023-01-19T01:34:35.390Z,30.70
2023-01-19T01:37:02.986Z,38.35
2023-01-19T01:39:29.868Z,35.67
2023-01-19T01:41:57.598Z,34.40
2023-01-19T01:45:02.031Z,37.95
2023-01-19T01:47:40.085Z,36.00
2023-01-19T01:50:30.641Z,36.05
2023-01-19T01:53:12.362Z,42.60
2023-01-19T01:55:48.059Z,38.63
2023-01-19T01:58:16.399Z,39.28
2023-01-19T02:01:02.092Z,42.03
2023-01-19T02:03:29.467Z,42.08
2023-01-19T02:06:00.275Z,35.75
2023-01-19T02:08:51.933Z,37.28
2023-01-19T02:11:37.986Z,38.80
2023-01-19T02:14:06.061Z,40.28
2023-01-19T02:16:33.769Z,38.75
2023-01-19T02:19:01.329Z,44.65
2023-01-19T02:21:33.981Z,40.80
2023-01-19T02:24:03.088Z,41.28
2023-01-19T02:26:39.973Z,39.20
2023-01-19T02:29:13.487Z,38.20
2023-01-19T02:31:41.159Z,36.95
2023-01-19T02:34:11.202Z,37.97
2023-01-19T02:36:50.661Z,39.58
2023-01-19T02:39:20.860Z,42.45
2023-01-19T02:41:54.893Z,49.00
2023-01-19T02:44:23.567Z,41.40
2023-01-19T02:46:53.430Z,38.75
2023-01-19T02:49:20.316Z,33.42
2023-01-19T02:51:47.263Z,41.00
2023-01-19T02:54:28.208Z,41.58
2023-01-19T02:57:06.532Z,44.85
2023-01-19T02:59:52.273Z,32.30
2023-01-19T03:03:02.681Z,34.78
2023-01-19T03:06:05.731Z,42.08
2023-01-19T03:09:10.267Z,50.92
2023-01-19T03:11:41.947Z,42.22
2023-01-19T03:14:16.450Z,38.85
2023-01-19T03:16:50.036Z,41.05
2023-01-19T03:19:36.857Z,46.95
2023-01-19T03:22:15.055Z,42.85
2023-01-19T03:24:47.702Z,43.83
2023-01-19T03:27:27.007Z,39.60
2023-01-19T03:30:00.383Z,40.70
2023-01-19T03:32:39.976Z,34.28
2023-01-19T03:35:12.779Z,40.63
2023-01-19T03:37:42.853Z,38.08
2023-01-19T03:40:10.877Z,46.25
2023-01-19T03:42:39.650Z,45.42
2023-01-19T03:45:07.922Z,36.97
2023-01-19T03:47:35.996Z,42.20
2023-01-19T03:50:07.051Z,26.17
2023-01-19T03:52:33.840Z,33.97
2023-01-19T03:55:05.763Z,35.25
2023-01-19T03:57:32.852Z,33.72
2023-01-19T03:59:59.664Z,46.08
2023-01-19T04:02:27.084Z,43.97
2023-01-19T04:04:53.876Z,43.50
2023-01-19T04:07:20.787Z,48.58
2023-01-19T04:09:47.686Z,38.85
2023-01-19T04:12:14.439Z,39.08
2023-01-19T04:14:41.212Z,37.30
2023-01-19T04:17:09.265Z,37.08
2023-01-19T04:19:36.185Z,42.17
2023-01-19T04:22:03.023Z,36.08
2023-01-19T04:24:29.769Z,41.42
2023-01-19T04:26:57.392Z,43.00
2023-01-19T04:29:24.535Z,34.42
2023-01-19T04:31:51.422Z,37.30
2023-01-19T04:34:18.433Z,30.88
2023-01-19T04:36:46.704Z,37.20
2023-01-19T04:39:13.548Z,29.80
2023-01-19T04:41:40.402Z,32.10
2023-01-19T04:44:07.170Z,37.75
2023-01-19T04:46:34.045Z,39.25
2023-01-19T04:49:00.961Z,37.63
2023-01-19T04:51:28.865Z,35.53
2023-01-19T04:53:57.404Z,38.97
2023-01-19T04:56:24.303Z,39.28
2023-01-19T04:58:51.315Z,40.83
2023-01-19T05:01:18.243Z,45.70
2023-01-19T05:03:45.197Z,44.30
2023-01-19T05:06:12.095Z,38.28
2023-01-19T05:08:39.520Z,41.47
2023-01-19T05:11:06.417Z,44.05
2023-01-19T05:13:33.534Z,45.80
2023-01-19T05:16:01.433Z,41.00
2023-01-19T05:18:28.623Z,36.40
2023-01-19T05:20:55.951Z,49.50
2023-01-19T05:23:22.712Z,41.70
2023-01-19T05:25:49.431Z,43.60
2023-01-19T05:28:17.162Z,41.22
2023-01-19T05:30:44.090Z,35.83
2023-01-19T05:33:10.825Z,43.85
2023-01-19T05:35:37.633Z,35.85
2023-01-19T05:38:04.672Z,39.70
2023-01-19T05:40:31.470Z,42.78
2023-01-19T05:43:01.965Z,40.85
2023-01-19T05:45:29.027Z,37.65
2023-01-19T05:47:56.095Z,38.65
2023-01-19T05:50:23.142Z,36.88
2023-01-19T05:52:49.944Z,40.80
2023-01-19T05:55:16.796Z,44.67
2023-01-19T05:57:43.956Z,42.65
2023-01-19T06:00:11.482Z,40.75
2023-01-19T06:02:38.381Z,44.55
2023-01-19T06:05:05.848Z,49.70
2023-01-19T06:07:32.604Z,42.35
2023-01-19T06:09:59.349Z,46.63
2023-01-19T06:12:26.375Z,42.75
2023-01-19T06:14:53.140Z,46.42
2023-01-19T06:17:20.494Z,42.15
2023-01-19T06:19:47.205Z,46.83
2023-01-19T06:22:14.014Z,46.30
2023-01-19T06:24:40.803Z,49.08
2023-01-19T06:27:07.924Z,45.35
2023-01-19T06:29:34.674Z,45.05
2023-01-19T06:32:01.521Z,47.60
2023-01-19T06:34:29.039Z,51.53
2023-01-19T06:36:56.534Z,53.22
2023-01-19T06:39:23.786Z,42.10
2023-01-19T06:41:51.013Z,45.83
2023-01-19T06:44:17.763Z,46.20
2023-01-19T06:46:44.622Z,51.40
2023-01-19T06:49:11.394Z,45.65
2023-01-19T06:51:38.208Z,56.08
2023-01-19T06:54:05.690Z,50.20
2023-01-19T06:56:32.632Z,48.08
2023-01-19T06:58:59.409Z,59.10
2023-01-19T07:01:27.081Z,53.17
2023-01-19T07:03:54.601Z,53.10
2023-01-19T07:06:21.595Z,51.08
2023-01-19T07:08:48.590Z,46.80
2023-01-19T07:11:25.919Z,51.03
2023-01-19T07:13:58.195Z,52.90
2023-01-19T07:16:25.491Z,50.92
2023-01-19T07:18:52.408Z,47.83
2023-01-19T07:21:19.433Z,53.53
2023-01-19T07:23:49.793Z,51.65
2023-01-19T07:26:19.911Z,48.58
2023-01-19T07:28:48.335Z,45.08
2023-01-19T07:31:16.006Z,51.20
2023-01-19T07:33:42.906Z,54.03
2023-01-19T07:36:10.523Z,46.13
2023-01-19T07:38:37.579Z,48.65
2023-01-19T07:41:06.810Z,49.45
2023-01-19T07:43:34.581Z,50.22
2023-01-19T07:46:03.439Z,47.63
2023-01-19T07:48:30.314Z,46.58
2023-01-19T07:51:01.899Z,49.47
2023-01-19T07:53:28.762Z,45.05
2023-01-19T07:55:57.058Z,45.33
2023-01-19T07:58:25.347Z,47.85
2023-01-19T08:00:52.732Z,51.75
2023-01-19T08:03:20.314Z,52.00
2023-01-19T08:05:51.688Z,46.05
2023-01-19T08:08:19.587Z,47.58
2023-01-19T08:10:49.957Z,48.45
2023-01-19T08:13:16.864Z,47.42
2023-01-19T08:15:43.694Z,44.15
2023-01-19T08:18:11.712Z,52.17
2023-01-19T08:20:38.646Z,50.63
2023-01-19T08:23:05.638Z,51.17
2023-01-19T08:25:35.043Z,50.13
2023-01-19T08:28:02.947Z,49.80
2023-01-19T08:30:30.474Z,49.60
2023-01-19T08:33:04.222Z,49.25
2023-01-19T08:35:32.394Z,44.63
2023-01-19T08:38:01.561Z,46.45
2023-01-19T08:40:30.109Z,48.90
2023-01-19T08:43:03.759Z,45.55
2023-01-19T08:45:31.238Z,50.78
2023-01-19T08:48:01.460Z,43.85
2023-01-19T08:50:30.148Z,46.83
2023-01-19T08:52:58.863Z,47.15
2023-01-19T08:55:26.510Z,47.08
2023-01-19T08:57:54.701Z,45.67
2023-01-19T09:00:22.385Z,44.47
2023-01-19T09:02:49.294Z,50.88
2023-01-19T09:05:16.201Z,45.67
2023-01-19T09:07:45.566Z,46.90
2023-01-19T09:10:12.771Z,46.28
2023-01-19T09:12:39.770Z,52.58
2023-01-19T09:15:07.385Z,50.15
2023-01-19T09:17:34.507Z,51.85
2023-01-19T09:20:01.303Z,49.55
2023-01-19T09:22:28.474Z,51.97
2023-01-19T09:24:55.282Z,58.33
2023-01-19T09:27:22.254Z,47.63
2023-01-19T09:29:52.652Z,45.95
2023-01-19T09:32:20.995Z,52.53
2023-01-19T09:34:47.951Z,44.28
2023-01-19T09:37:16.170Z,53.85
2023-01-19T09:39:42.992Z,44.13
2023-01-19T09:42:24.847Z,51.00
2023-01-19T09:44:54.462Z,47.17
2023-01-19T09:47:27.253Z,48.05
2023-01-19T09:49:59.967Z,50.83
2023-01-19T09:52:26.946Z,48.70
2023-01-19T09:54:59.209Z,52.70
2023-01-19T09:57:27.276Z,51.72
2023-01-19T09:59:59.601Z,51.40
2023-01-19T10:02:49.578Z,53.80
2023-01-19T10:05:31.519Z,53.13
2023-01-19T10:08:19.767Z,49.67
2023-01-19T10:10:53.086Z,55.55
2023-01-19T10:13:22.680Z,54.67
2023-01-19T10:16:20.752Z,61.38
2023-01-19T10:18:51.711Z,55.28
2023-01-19T10:21:22.751Z,57.33
2023-01-19T10:23:54.706Z,54.72
2023-01-19T10:26:24.145Z,60.55
2023-01-19T10:28:55.480Z,58.95
2023-01-19T10:31:24.599Z,62.92
2023-01-19T10:33:52.816Z,68.05
2023-01-19T10:36:29.854Z,65.45
2023-01-19T10:38:58.042Z,63.60
2023-01-19T10:41:35.159Z,71.32
2023-01-19T10:44:04.379Z,60.28
2023-01-19T10:46:42.377Z,74.68
2023-01-19T10:49:23.954Z,78.03
2023-01-19T10:51:51.158Z,70.05
2023-01-19T10:54:18.147Z,65.90
2023-01-19T10:56:53.423Z,63.70
2023-01-19T10:59:51.000Z,69.88
2023-01-19T11:02:27.683Z,76.80
2023-01-19T11:05:21.175Z,74.05
2023-01-19T11:07:47.986Z,61.30
2023-01-19T11:10:17.681Z,60.65
2023-01-19T11:12:56.476Z,65.15
2023-01-19T11:15:28.544Z,63.97
2023-01-19T11:17:56.015Z,64.90
2023-01-19T11:20:26.019Z,62.40
2023-01-19T11:23:21.488Z,62.60
2023-01-19T11:25:50.361Z,67.65
2023-01-19T11:28:40.630Z,63.47
2023-01-19T11:31:10.526Z,71.15
2023-01-19T11:33:58.831Z,62.05
2023-01-19T11:36:34.742Z,64.28
2023-01-19T11:39:45.753Z,65.45
2023-01-19T11:42:13.572Z,69.05
2023-01-19T11:44:44.557Z,64.28
2023-01-19T11:47:30.570Z,62.77
2023-01-19T11:50:06.733Z,65.25
2023-01-19T11:52:43.310Z,69.32
2023-01-19T11:55:37.060Z,79.47
2023-01-19T11:58:05.435Z,65.53
2023-01-19T12:00:40.467Z,66.95
2023-01-19T12:03:13.225Z,67.63
2023-01-19T12:05:45.585Z,62.72
2023-01-19T12:08:18.745Z,69.75
2023-01-19T12:10:47.956Z,56.25
2023-01-19T12:13:26.736Z,66.47
2023-01-19T12:16:22.323Z,61.33
2023-01-19T12:18:56.151Z,76.25
2023-01-19T12:21:22.959Z,64.63
2023-01-19T12:24:07.531Z,59.40
2023-01-19T12:26:43.701Z,59.85
2023-01-19T12:29:14.109Z,62.95
2023-01-19T12:31:43.201Z,67.60
2023-01-19T12:34:26.014Z,66.97
2023-01-19T12:36:57.867Z,63.92
2023-01-19T12:42:06.784Z,60.65
2023-01-19T12:44:34.487Z,60.35
2023-01-19T12:47:20.320Z,62.03
2023-01-19T12:49:51.019Z,63.00
2023-01-19T12:52:28.097Z,69.03
2023-01-19T12:55:02.852Z,63.75
2023-01-19T12:57:33.447Z,56.80
2023-01-19T13:00:21.317Z,68.57
2023-01-19T13:02:55.192Z,62.95
2023-01-19T13:05:24.491Z,65.22
2023-01-19T13:08:04.920Z,73.13
2023-01-19T13:10:50.554Z,72.05
2023-01-19T13:13:27.940Z,62.38
2023-01-19T13:15:56.427Z,68.35
2023-01-19T13:18:29.822Z,70.20
2023-01-19T13:21:03.709Z,71.38
2023-01-19T13:23:51.343Z,72.57
2023-01-19T13:26:23.391Z,61.20
2023-01-19T13:28:54.962Z,67.35
2023-01-19T13:31:24.138Z,70.32
2023-01-19T13:34:00.134Z,71.63
2023-01-19T13:36:35.542Z,75.55
2023-01-19T13:39:08.317Z,74.43
2023-01-19T13:41:41.129Z,69.35
2023-01-19T13:44:30.719Z,76.95
2023-01-19T13:46:59.783Z,72.97
2023-01-19T13:49:34.112Z,69.53
2023-01-19T13:52:27.227Z,66.80
2023-01-19T13:55:06.400Z,67.85
2023-01-19T13:57:39.492Z,85.18
2023-01-19T14:00:07.221Z,66.70
2023-01-19T14:02:34.446Z,74.28
2023-01-19T14:05:23.788Z,68.82
2023-01-19T14:08:08.939Z,69.00
2023-01-19T14:10:38.524Z,61.00
2023-01-19T14:13:17.106Z,63.25
2023-01-19T14:15:44.781Z,64.93
2023-01-19T14:18:14.266Z,69.10
2023-01-19T14:20:41.498Z,64.93
2023-01-19T14:23:44.685Z,68.25
2023-01-19T14:26:46.662Z,68.00
2023-01-19T14:29:27.069Z,66.63
2023-01-19T14:32:23.058Z,63.67
2023-01-19T14:34:53.719Z,62.92
2023-01-19T14:37:29.680Z,58.83
2023-01-19T14:40:15.233Z,63.45
2023-01-19T14:43:03.160Z,61.47
2023-01-19T14:45:41.359Z,57.90
2023-01-19T14:48:18.802Z,56.60
2023-01-19T14:51:01.930Z,62.15
2023-01-19T14:53:36.663Z,55.08
2023-01-19T14:56:05.714Z,60.72
2023-01-19T14:58:34.655Z,61.55
2023-01-19T15:01:02.817Z,61.92
2023-01-19T15:03:44.287Z,56.90
2023-01-19T15:06:17.575Z,58.33
2023-01-19T15:08:45.786Z,55.70
2023-01-19T15:11:27.524Z,58.13
2023-01-19T15:13:55.499Z,54.35
2023-01-19T15:16:23.896Z,54.25
2023-01-19T15:18:50.788Z,61.63
2023-01-19T15:21:20.205Z,56.35
2023-01-19T15:23:47.704Z,59.90
2023-01-19T15:26:18.006Z,58.42
2023-01-19T15:28:45.912Z,56.75
2023-01-19T15:31:21.870Z,56.63
2023-01-19T15:33:48.851Z,51.90
2023-01-19T15:36:18.461Z,57.00
2023-01-19T15:38:46.020Z,54.03
2023-01-19T15:41:40.052Z,58.08
2023-01-19T15:44:08.565Z,53.78
2023-01-19T15:46:35.355Z,55.97
2023-01-19T15:49:02.202Z,55.75
2023-01-19T15:51:29.042Z,51.22
2023-01-19T15:53:56.214Z,51.85
2023-01-19T15:56:28.236Z,49.92
2023-01-19T15:58:55.619Z,44.30
2023-01-19T16:01:31.356Z,48.72
2023-01-19T16:04:01.271Z,54.97
2023-01-19T16:06:29.236Z,52.50
2023-01-19T16:09:01.282Z,46.10
2023-01-19T16:11:33.507Z,47.08
2023-01-19T16:16:28.178Z,46.40
2023-01-19T16:18:56.139Z,49.72
2023-01-19T16:21:23.832Z,52.33
2023-01-19T16:23:51.424Z,52.72
2023-01-19T16:26:35.329Z,46.38
2023-01-19T16:29:08.761Z,51.38
2023-01-19T16:31:40.453Z,46.85
2023-01-19T16:34:08.155Z,48.38
2023-01-19T16:36:36.880Z,45.55
2023-01-19T16:39:09.388Z,49.45
2023-01-19T16:41:36.563Z,50.80
2023-01-19T16:44:04.490Z,46.20
2023-01-19T16:46:36.664Z,55.05
2023-01-19T16:49:11.574Z,51.72
2023-01-19T16:51:38.765Z,53.65
2023-01-19T16:54:06.214Z,53.88
2023-01-19T16:56:33.335Z,49.50
2023-01-19T16:59:00.452Z,60.70
2023-01-19T17:01:29.256Z,45.63
2023-01-19T17:03:56.713Z,63.78
2023-01-19T17:06:24.997Z,70.57
2023-01-19T17:08:53.144Z,79.03
2023-01-19T17:11:32.094Z,89.00
2023-01-19T17:14:00.870Z,83.10
2023-01-19T17:16:29.235Z,82.57
2023-01-19T17:19:01.126Z,73.55
2023-01-19T17:21:28.443Z,91.90
2023-01-19T17:23:56.678Z,99.85
2023-01-19T17:26:42.923Z,87.68
2023-01-19T17:29:10.417Z,87.22
2023-01-19T17:31:37.455Z,111.78
2023-01-19T17:34:04.966Z,107.28
2023-01-19T17:36:33.006Z,86.75
2023-01-19T17:39:04.602Z,102.13
2023-01-19T17:41:33.424Z,125.90
2023-01-19T17:44:01.146Z,96.65
2023-01-19T17:46:29.806Z,83.38
2023-01-19T17:49:04.441Z,81.57
2023-01-19T17:51:32.212Z,102.50
2023-01-19T17:53:59.491Z,92.28
2023-01-19T17:56:29.916Z,101.72
2023-01-19T17:58:58.104Z,119.70
2023-01-19T18:01:37.957Z,94.40
2023-01-19T18:04:05.541Z,99.32
2023-01-19T18:06:32.741Z,106.30
2023-01-19T18:08:59.639Z,114.30
2023-01-19T18:11:27.145Z,100.95
2023-01-19T18:13:54.330Z,109.00
2023-01-19T18:16:26.458Z,125.53
2023-01-19T18:18:54.393Z,100.05
2023-01-19T18:21:22.262Z,103.65
2023-01-19T18:23:50.971Z,123.55
2023-01-19T18:26:21.026Z,122.75
2023-01-19T18:28:49.163Z,99.45
2023-01-19T18:31:18.449Z,147.55
2023-01-19T18:33:45.689Z,124.28
2023-01-19T18:36:12.661Z,151.45
2023-01-19T18:38:40.383Z,118.70
2023-01-19T18:41:12.917Z,155.45
2023-01-19T18:43:40.063Z,147.57
2023-01-19T18:46:07.914Z,132.18
2023-01-19T18:48:35.337Z,130.32
2023-01-19T18:51:13.942Z,137.13
2023-01-19T18:53:41.560Z,138.10
2023-01-19T18:56:11.171Z,151.63
2023-01-19T18:58:39.108Z,123.57
2023-01-19T19:01:21.083Z,155.45
2023-01-19T19:03:48.278Z,118.80
2023-01-19T19:06:16.867Z,155.60
2023-01-19T19:08:44.238Z,138.27
2023-01-19T19:11:14.009Z,137.15
2023-01-19T19:13:41.159Z,123.78
2023-01-19T19:16:10.490Z,145.95
2023-01-19T19:18:38.806Z,118.15
2023-01-19T19:21:07.500Z,148.05
2023-01-19T19:23:34.910Z,129.48
2023-01-19T19:26:10.461Z,131.13
2023-01-19T19:28:39.504Z,127.57
2023-01-19T19:31:12.772Z,114.47
2023-01-19T19:33:40.929Z,132.95
2023-01-19T19:36:09.271Z,128.90
2023-01-19T19:38:36.998Z,141.73
2023-01-19T19:41:08.726Z,145.13
2023-01-19T19:43:36.518Z,139.10
2023-01-19T19:46:04.922Z,189.38
2023-01-19T19:48:32.045Z,145.98
2023-01-19T19:51:17.487Z,138.82
2023-01-19T19:53:50.833Z,140.98
2023-01-19T19:56:21.258Z,139.88
2023-01-19T19:58:49.011Z,124.22
2023-01-19T20:01:21.108Z,120.13
2023-01-19T20:03:50.101Z,121.85
2023-01-19T20:06:22.843Z,125.63
2023-01-19T20:08:51.205Z,125.50
2023-01-19T20:11:27.372Z,110.45
2023-01-19T20:13:54.732Z,115.25
2023-01-19T20:16:23.202Z,124.45
2023-01-19T20:18:54.347Z,127.35
2023-01-19T20:21:30.359Z,144.00
2023-01-19T20:24:01.125Z,128.65
2023-01-19T20:26:32.441Z,148.32
2023-01-19T20:29:02.998Z,132.07
2023-01-19T20:31:32.480Z,149.35
2023-01-19T20:34:01.592Z,139.30
2023-01-19T20:36:28.971Z,127.07
2023-01-19T20:38:57.187Z,143.43
2023-01-19T20:41:26.279Z,155.73
2023-01-19T20:43:53.171Z,124.70
2023-01-19T20:46:20.025Z,130.93
2023-01-19T20:48:50.891Z,166.85
2023-01-19T20:51:21.035Z,143.90
2023-01-19T20:53:48.498Z,140.77
2023-01-19T20:56:15.801Z,134.48
2023-01-19T20:58:42.875Z,133.95
2023-01-19T21:01:22.707Z,131.50
2023-01-19T21:03:50.506Z,118.97
2023-01-19T21:06:18.693Z,131.02
2023-01-19T21:08:46.083Z,121.03
2023-01-19T21:11:13.362Z,128.27
2023-01-19T21:13:40.253Z,123.00
2023-01-19T21:16:07.736Z,106.60
2023-01-19T21:18:34.858Z,109.88
2023-01-19T21:21:01.636Z,111.18
2023-01-19T21:23:29.046Z,106.53
2023-01-19T21:25:58.397Z,99.25
2023-01-19T21:28:26.770Z,92.28
2023-01-19T21:30:54.938Z,92.50
2023-01-19T21:33:22.814Z,106.30
2023-01-19T21:35:51.411Z,90.43
2023-01-19T21:38:18.291Z,90.50
2023-01-19T21:40:45.388Z,97.05
2023-01-19T21:43:13.569Z,87.15
2023-01-19T21:45:55.492Z,91.38
2023-01-19T21:48:22.501Z,95.53
2023-01-19T21:50:58.418Z,86.53
2023-01-19T21:53:25.391Z,83.82
2023-01-19T21:55:52.362Z,86.55
2023-01-19T21:58:19.141Z,88.45
2023-01-19T22:00:46.008Z,78.28
2023-01-19T22:03:12.924Z,78.65
2023-01-19T22:05:39.780Z,80.72
2023-01-19T22:08:06.761Z,79.32
2023-01-19T22:10:37.487Z,83.72
2023-01-19T22:13:06.623Z,77.55
2023-01-19T22:15:33.637Z,79.75
2023-01-19T22:18:00.552Z,79.03
2023-01-19T22:20:27.441Z,82.35
2023-01-19T22:22:54.255Z,72.03
2023-01-19T22:25:24.717Z,82.50
2023-01-19T22:27:51.448Z,71.05
2023-01-19T22:30:18.568Z,76.85
2023-01-19T22:32:45.404Z,72.40
2023-01-19T22:35:12.481Z,73.72
2023-01-19T22:37:39.403Z,76.20
2023-01-19T22:40:06.724Z,73.05
2023-01-19T22:42:33.515Z,72.22
2023-01-19T22:45:00.296Z,70.82
2023-01-19T22:47:27.101Z,72.50
2023-01-19T22:49:53.886Z,71.25
2023-01-19T22:52:20.660Z,71.75
2023-01-19T22:54:47.430Z,67.18
2023-01-19T22:57:14.323Z,77.07
2023-01-19T22:59:41.616Z,61.63
2023-01-19T23:02:09.281Z,70.80
2023-01-19T23:04:36.247Z,63.03
2023-01-19T23:07:03.005Z,70.85
2023-01-19T23:09:29.886Z,70.47
2023-01-19T23:11:56.649Z,65.15
2023-01-19T23:14:23.484Z,62.08
2023-01-19T23:16:50.333Z,71.25
2023-01-19T23:19:17.877Z,68.07
2023-01-19T23:21:45.432Z,66.50
2023-01-19T23:24:12.392Z,61.97
2023-01-19T23:26:39.375Z,65.47
2023-01-19T23:29:09.807Z,61.78
2023-01-19T23:31:38.522Z,70.03
2023-01-19T23:34:08.309Z,60.70
2023-01-19T23:36:38.085Z,60.08
2023-01-19T23:39:13.162Z,60.25
2023-01-19T23:41:39.862Z,64.28
2023-01-19T23:44:06.657Z,59.10
2023-01-19T23:46:33.508Z,62.03
2023-01-19T23:49:00.384Z,60.38
2023-01-19T23:51:29.520Z,63.10
2023-01-19T23:53:57.291Z,67.03
2023-01-19T23:56:32.858Z,68.47
2023-01-19T23:59:05.284Z,63.30
